sensor_id;sensor_type;location;lat;lon;timestamp;pressure;altitude;pressure_sealevel;temperature;humidity
25238;BME280;13185;50.872;5.306;2023-02-27T00:01:05;102402.81;;;0.15;79.55
25238;BME280;13185;50.872;5.306;2023-02-27T00:03:31;102403.69;;;0.12;79.59
25238;BME280;13185;50.872;5.306;2023-02-27T00:05:56;102405.41;;;0.09;79.80
25238;BME280;13185;50.872;5.306;2023-02-27T00:08:22;102413.34;;;0.09;80.07
25238;BME280;13185;50.872;5.306;2023-02-27T00:10:48;102416.84;;;0.06;79.96
25238;BME280;13185;50.872;5.306;2023-02-27T00:13:15;102422.13;;;0.03;80.20
25238;BME280;13185;50.872;5.306;2023-02-27T00:15:40;102415.97;;;0.03;80.27
25238;BME280;13185;50.872;5.306;2023-02-27T00:18:06;102415.97;;;0.04;80.30
25238;BME280;13185;50.872;5.306;2023-02-27T00:20:32;102415.97;;;0.03;80.26
25238;BME280;13185;50.872;5.306;2023-02-27T00:23:04;102409.81;;;0.01;80.11
25238;BME280;13185;50.872;5.306;2023-02-27T00:25:31;102411.53;;;-0.02;80.25
25238;BME280;13185;50.872;5.306;2023-02-27T00:27:57;102408.91;;;-0.05;80.62
25238;BME280;13185;50.872;5.306;2023-02-27T00:30:22;102407.16;;;-0.09;80.57
25238;BME280;13185;50.872;5.306;2023-02-27T00:32:52;102408.88;;;-0.12;80.58
25238;BME280;13185;50.872;5.306;2023-02-27T00:35:17;102407.09;;;-0.15;80.82
25238;BME280;13185;50.872;5.306;2023-02-27T00:37:43;102411.50;;;-0.14;80.81
25238;BME280;13185;50.872;5.306;2023-02-27T00:40:09;102416.78;;;-0.15;80.99
25238;BME280;13185;50.872;5.306;2023-02-27T00:42:35;102417.66;;;-0.18;80.77
25238;BME280;13185;50.872;5.306;2023-02-27T00:45:02;102427.31;;;-0.20;80.83
25238;BME280;13185;50.872;5.306;2023-02-27T00:47:30;102421.13;;;-0.26;81.24
25238;BME280;13185;50.872;5.306;2023-02-27T00:49:55;102416.72;;;-0.29;81.63
25238;BME280;13185;50.872;5.306;2023-02-27T00:52:21;102421.06;;;-0.34;81.58
25238;BME280;13185;50.872;5.306;2023-02-27T00:54:46;102418.44;;;-0.36;81.59
25238;BME280;13185;50.872;5.306;2023-02-27T00:57:12;102422.84;;;-0.36;81.99
25238;BME280;13185;50.872;5.306;2023-02-27T00:59:39;102424.59;;;-0.37;81.93
25238;BME280;13185;50.872;5.306;2023-02-27T01:02:05;102417.56;;;-0.39;82.12
25238;BME280;13185;50.872;5.306;2023-02-27T01:04:31;102426.34;;;-0.40;82.22
25238;BME280;13185;50.872;5.306;2023-02-27T01:06:57;102421.03;;;-0.42;82.43
25238;BME280;13185;50.872;5.306;2023-02-27T01:09:22;102422.78;;;-0.42;82.48
25238;BME280;13185;50.872;5.306;2023-02-27T01:11:50;102424.53;;;-0.44;82.48
25238;BME280;13185;50.872;5.306;2023-02-27T01:14:16;102422.78;;;-0.44;82.37
25238;BME280;13185;50.872;5.306;2023-02-27T01:16:44;102415.75;;;-0.45;82.35
25238;BME280;13185;50.872;5.306;2023-02-27T01:19:09;102413.97;;;-0.49;82.31
25238;BME280;13185;50.872;5.306;2023-02-27T01:21:35;102419.25;;;-0.50;82.43
25238;BME280;13185;50.872;5.306;2023-02-27T01:24:01;102416.56;;;-0.55;82.60
25238;BME280;13185;50.872;5.306;2023-02-27T01:26:26;102422.72;;;-0.56;82.75
25238;BME280;13185;50.872;5.306;2023-02-27T01:28:52;102419.19;;;-0.58;82.93
25238;BME280;13185;50.872;5.306;2023-02-27T01:31:17;102414.81;;;-0.57;82.89
25238;BME280;13185;50.872;5.306;2023-02-27T01:33:43;102414.81;;;-0.59;83.13
25238;BME280;13185;50.872;5.306;2023-02-27T01:36:09;102410.41;;;-0.60;83.09
25238;BME280;13185;50.872;5.306;2023-02-27T01:38:34;102411.28;;;-0.61;83.17
25238;BME280;13185;50.872;5.306;2023-02-27T01:41:00;102417.38;;;-0.64;83.13
25238;BME280;13185;50.872;5.306;2023-02-27T01:43:25;102408.59;;;-0.66;83.25
25238;BME280;13185;50.872;5.306;2023-02-27T01:45:51;102410.34;;;-0.68;83.35
25238;BME280;13185;50.872;5.306;2023-02-27T01:48:32;102408.59;;;-0.70;83.53
25238;BME280;13185;50.872;5.306;2023-02-27T01:51:06;102410.28;;;-0.75;83.56
25238;BME280;13185;50.872;5.306;2023-02-27T01:53:35;102400.63;;;-0.78;83.83
25238;BME280;13185;50.872;5.306;2023-02-27T01:56:09;102401.50;;;-0.79;84.00
25238;BME280;13185;50.872;5.306;2023-02-27T01:58:36;102399.75;;;-0.80;83.83
25238;BME280;13185;50.872;5.306;2023-02-27T02:01:02;102396.22;;;-0.82;84.04
25238;BME280;13185;50.872;5.306;2023-02-27T02:03:33;102398.81;;;-0.85;84.25
25238;BME280;13185;50.872;5.306;2023-02-27T02:06:02;102402.31;;;-0.89;84.49
25238;BME280;13185;50.872;5.306;2023-02-27T02:08:33;102400.56;;;-0.90;84.54
25238;BME280;13185;50.872;5.306;2023-02-27T02:11:00;102403.19;;;-0.92;84.65
25238;BME280;13185;50.872;5.306;2023-02-27T02:13:27;102411.91;;;-0.94;84.59
25238;BME280;13185;50.872;5.306;2023-02-27T02:16:22;102407.53;;;-0.95;84.90
25238;BME280;13185;50.872;5.306;2023-02-27T02:25:44;102411.00;;;-1.02;85.09
25238;BME280;13185;50.872;5.306;2023-02-27T02:31:08;102403.94;;;-1.06;85.27
25238;BME280;13185;50.872;5.306;2023-02-27T02:39:35;102415.31;;;-1.10;85.97
25238;BME280;13185;50.872;5.306;2023-02-27T02:42:26;102417.06;;;-1.11;85.93
25238;BME280;13185;50.872;5.306;2023-02-27T02:45:28;102412.66;;;-1.13;85.96
25238;BME280;13185;50.872;5.306;2023-02-27T02:48:04;102419.66;;;-1.16;85.90
25238;BME280;13185;50.872;5.306;2023-02-27T02:50:47;102422.28;;;-1.17;86.25
25238;BME280;13185;50.872;5.306;2023-02-27T02:59:13;102422.25;;;-1.20;86.39
25238;BME280;13185;50.872;5.306;2023-02-27T03:02:01;102420.50;;;-1.21;86.49
25238;BME280;13185;50.872;5.306;2023-02-27T03:07:22;102423.06;;;-1.27;86.74
25238;BME280;13185;50.872;5.306;2023-02-27T03:09:53;102418.66;;;-1.31;86.65
25238;BME280;13185;50.872;5.306;2023-02-27T03:12:22;102424.78;;;-1.32;87.01
25238;BME280;13185;50.872;5.306;2023-02-27T03:15:04;102426.53;;;-1.33;87.09
25238;BME280;13185;50.872;5.306;2023-02-27T03:17:54;102423.03;;;-1.33;87.12
25238;BME280;13185;50.872;5.306;2023-02-27T03:20:26;102420.34;;;-1.36;87.34
25238;BME280;13185;50.872;5.306;2023-02-27T03:23:00;102422.97;;;-1.36;87.30
25238;BME280;13185;50.872;5.306;2023-02-27T03:25:30;102428.22;;;-1.38;87.33
25238;BME280;13185;50.872;5.306;2023-02-27T03:28:00;102433.50;;;-1.38;87.37
25238;BME280;13185;50.872;5.306;2023-02-27T03:30:33;102430.84;;;-1.41;87.24
25238;BME280;13185;50.872;5.306;2023-02-27T03:33:22;102434.34;;;-1.40;87.35
25238;BME280;13185;50.872;5.306;2023-02-27T03:35:58;102436.09;;;-1.41;87.32
25238;BME280;13185;50.872;5.306;2023-02-27T03:38:52;102444.88;;;-1.42;87.49
25238;BME280;13185;50.872;5.306;2023-02-27T03:41:31;102440.47;;;-1.43;87.60
25238;BME280;13185;50.872;5.306;2023-02-27T03:46:50;102442.22;;;-1.45;87.82
25238;BME280;13185;50.872;5.306;2023-02-27T03:49:15;102440.44;;;-1.46;87.71
25238;BME280;13185;50.872;5.306;2023-02-27T03:51:41;102448.38;;;-1.44;87.69
25238;BME280;13185;50.872;5.306;2023-02-27T03:54:13;102451.88;;;-1.46;87.65
25238;BME280;13185;50.872;5.306;2023-02-27T03:56:44;102453.56;;;-1.48;87.88
25238;BME280;13185;50.872;5.306;2023-02-27T03:59:13;102456.19;;;-1.48;87.75
25238;BME280;13185;50.872;5.306;2023-02-27T04:01:44;102458.84;;;-1.48;87.78
25238;BME280;13185;50.872;5.306;2023-02-27T04:04:14;102459.75;;;-1.46;87.97
25238;BME280;13185;50.872;5.306;2023-02-27T04:07:13;102467.63;;;-1.47;87.80
25238;BME280;13185;50.872;5.306;2023-02-27T04:23:39;102473.69;;;-1.56;88.24
25238;BME280;13185;50.872;5.306;2023-02-27T04:31:35;102471.91;;;-1.57;88.29
25238;BME280;13185;50.872;5.306;2023-02-27T04:34:45;102478.00;;;-1.59;88.38
25238;BME280;13185;50.872;5.306;2023-02-27T04:37:09;102481.50;;;-1.62;88.41
25238;BME280;13185;50.872;5.306;2023-02-27T04:39:59;102476.22;;;-1.63;88.47
25238;BME280;13185;50.872;5.306;2023-02-27T04:42:30;102479.72;;;-1.66;88.65
25238;BME280;13185;50.872;5.306;2023-02-27T04:44:59;102483.19;;;-1.67;88.62
25238;BME280;13185;50.872;5.306;2023-02-27T04:47:29;102484.03;;;-1.71;88.54
25238;BME280;13185;50.872;5.306;2023-02-27T04:50:10;102484.00;;;-1.74;88.90
25238;BME280;13185;50.872;5.306;2023-02-27T04:52:40;102484.84;;;-1.77;88.73
25238;BME280;13185;50.872;5.306;2023-02-27T04:55:20;102491.88;;;-1.77;88.78
25238;BME280;13185;50.872;5.306;2023-02-27T04:57:53;102488.38;;;-1.76;88.97
25238;BME280;13185;50.872;5.306;2023-02-27T05:00:22;102490.13;;;-1.77;88.96
25238;BME280;13185;50.872;5.306;2023-02-27T05:03:08;102483.03;;;-1.79;89.06
25238;BME280;13185;50.872;5.306;2023-02-27T05:05:37;102486.53;;;-1.82;89.11
25238;BME280;13185;50.872;5.306;2023-02-27T05:13:28;102492.63;;;-1.84;89.42
25238;BME280;13185;50.872;5.306;2023-02-27T05:16:04;102498.75;;;-1.87;89.63
25238;BME280;13185;50.872;5.306;2023-02-27T05:18:32;102501.41;;;-1.85;89.65
25238;BME280;13185;50.872;5.306;2023-02-27T05:26:22;102500.44;;;-1.90;89.68
25238;BME280;13185;50.872;5.306;2023-02-27T05:28:53;102497.81;;;-1.89;89.64
25238;BME280;13185;50.872;5.306;2023-02-27T05:34:34;102507.44;;;-1.91;89.52
25238;BME280;13185;50.872;5.306;2023-02-27T05:37:07;102495.16;;;-1.93;89.56
25238;BME280;13185;50.872;5.306;2023-02-27T05:39:36;102496.03;;;-1.94;89.58
25238;BME280;13185;50.872;5.306;2023-02-27T05:42:08;102492.50;;;-1.96;89.77
25238;BME280;13185;50.872;5.306;2023-02-27T05:44:41;102498.63;;;-1.96;89.67
25238;BME280;13185;50.872;5.306;2023-02-27T05:47:13;102500.38;;;-1.98;89.78
25238;BME280;13185;50.872;5.306;2023-02-27T05:50:17;102499.44;;;-1.98;89.71
25238;BME280;13185;50.872;5.306;2023-02-27T05:52:45;102498.53;;;-2.02;89.66
25238;BME280;13185;50.872;5.306;2023-02-27T05:55:19;102501.16;;;-2.04;89.87
25238;BME280;13185;50.872;5.306;2023-02-27T05:57:51;102508.16;;;-2.04;89.95
25238;BME280;13185;50.872;5.306;2023-02-27T06:02:57;102513.38;;;-2.07;89.99
25238;BME280;13185;50.872;5.306;2023-02-27T06:05:24;102514.25;;;-2.08;90.24
25238;BME280;13185;50.872;5.306;2023-02-27T06:07:50;102523.84;;;-2.09;90.25
25238;BME280;13185;50.872;5.306;2023-02-27T06:10:17;102524.72;;;-2.10;90.17
25238;BME280;13185;50.872;5.306;2023-02-27T06:12:43;102522.97;;;-2.09;90.29
25238;BME280;13185;50.872;5.306;2023-02-27T06:15:10;102529.97;;;-2.11;90.11
25238;BME280;13185;50.872;5.306;2023-02-27T06:17:35;102525.56;;;-2.14;90.18
25238;BME280;13185;50.872;5.306;2023-02-27T06:20:01;102527.28;;;-2.14;90.51
25238;BME280;13185;50.872;5.306;2023-02-27T06:22:27;102524.63;;;-2.17;90.54
25238;BME280;13185;50.872;5.306;2023-02-27T06:24:53;102536.03;;;-2.17;90.74
25238;BME280;13185;50.872;5.306;2023-02-27T06:27:18;102533.41;;;-2.17;90.80
25238;BME280;13185;50.872;5.306;2023-02-27T06:29:44;102533.38;;;-2.18;90.78
25238;BME280;13185;50.872;5.306;2023-02-27T06:32:09;102531.59;;;-2.19;90.88
25238;BME280;13185;50.872;5.306;2023-02-27T06:34:35;102541.22;;;-2.20;90.83
25238;BME280;13185;50.872;5.306;2023-02-27T06:37:01;102544.72;;;-2.21;90.93
25238;BME280;13185;50.872;5.306;2023-02-27T06:39:26;102542.09;;;-2.21;91.21
25238;BME280;13185;50.872;5.306;2023-02-27T06:41:53;102549.09;;;-2.20;91.27
25238;BME280;13185;50.872;5.306;2023-02-27T06:44:18;102541.28;;;-2.18;91.26
25238;BME280;13185;50.872;5.306;2023-02-27T06:46:44;102550.00;;;-2.19;91.55
25238;BME280;13185;50.872;5.306;2023-02-27T06:49:09;102552.66;;;-2.18;91.46
25238;BME280;13185;50.872;5.306;2023-02-27T06:51:35;102557.03;;;-2.18;91.74
25238;BME280;13185;50.872;5.306;2023-02-27T06:54:01;102562.31;;;-2.18;91.58
25238;BME280;13185;50.872;5.306;2023-02-27T06:56:26;102557.94;;;-2.16;91.75
25238;BME280;13185;50.872;5.306;2023-02-27T06:58:51;102558.81;;;-2.16;91.78
25238;BME280;13185;50.872;5.306;2023-02-27T07:01:17;102570.25;;;-2.14;92.19
25238;BME280;13185;50.872;5.306;2023-02-27T07:03:43;102565.88;;;-2.13;92.03
25238;BME280;13185;50.872;5.306;2023-02-27T07:06:08;102571.16;;;-2.10;92.15
25238;BME280;13185;50.872;5.306;2023-02-27T07:08:34;102576.41;;;-2.10;92.14
25238;BME280;13185;50.872;5.306;2023-02-27T07:11:00;102579.97;;;-2.08;92.14
25238;BME280;13185;50.872;5.306;2023-02-27T07:13:25;102574.66;;;-2.10;92.54
25238;BME280;13185;50.872;5.306;2023-02-27T07:15:51;102577.28;;;-2.10;92.45
25238;BME280;13185;50.872;5.306;2023-02-27T07:18:16;102577.34;;;-2.08;92.73
25238;BME280;13185;50.872;5.306;2023-02-27T07:20:42;102578.22;;;-2.08;93.09
25238;BME280;13185;50.872;5.306;2023-02-27T07:23:08;102576.47;;;-2.07;93.31
25238;BME280;13185;50.872;5.306;2023-02-27T07:25:35;102573.00;;;-2.05;93.48
25238;BME280;13185;50.872;5.306;2023-02-27T07:28:00;102577.41;;;-2.04;93.60
25238;BME280;13185;50.872;5.306;2023-02-27T07:30:26;102587.97;;;-1.99;93.64
25238;BME280;13185;50.872;5.306;2023-02-27T07:32:52;102589.78;;;-1.96;93.63
25238;BME280;13185;50.872;5.306;2023-02-27T07:35:18;102604.75;;;-1.91;93.62
25238;BME280;13185;50.872;5.306;2023-02-27T07:37:45;102596.88;;;-1.88;93.74
25238;BME280;13185;50.872;5.306;2023-02-27T07:40:11;102594.34;;;-1.83;93.87
25238;BME280;13185;50.872;5.306;2023-02-27T07:42:36;102597.88;;;-1.80;93.88
25238;BME280;13185;50.872;5.306;2023-02-27T07:45:02;102596.22;;;-1.75;94.00
25238;BME280;13185;50.872;5.306;2023-02-27T07:47:28;102606.78;;;-1.70;93.81
25238;BME280;13185;50.872;5.306;2023-02-27T07:49:54;102593.66;;;-1.68;93.96
25238;BME280;13185;50.872;5.306;2023-02-27T07:52:20;102594.63;;;-1.63;94.29
25238;BME280;13185;50.872;5.306;2023-02-27T07:54:45;102591.16;;;-1.59;94.25
25238;BME280;13185;50.872;5.306;2023-02-27T07:57:11;102596.47;;;-1.56;94.22
25238;BME280;13185;50.872;5.306;2023-02-27T07:59:36;102599.13;;;-1.53;94.36
25238;BME280;13185;50.872;5.306;2023-02-27T08:02:01;102596.53;;;-1.49;94.32
25238;BME280;13185;50.872;5.306;2023-02-27T08:04:27;102598.31;;;-1.46;94.39
25238;BME280;13185;50.872;5.306;2023-02-27T08:06:52;102593.97;;;-1.46;94.12
25238;BME280;13185;50.872;5.306;2023-02-27T08:09:18;102588.75;;;-1.42;94.44
25238;BME280;13185;50.872;5.306;2023-02-27T08:11:43;102604.59;;;-1.36;94.38
25238;BME280;13185;50.872;5.306;2023-02-27T08:14:09;102602.00;;;-1.33;94.25
25238;BME280;13185;50.872;5.306;2023-02-27T08:16:35;102598.59;;;-1.25;94.19
25238;BME280;13185;50.872;5.306;2023-02-27T08:19:00;102602.19;;;-1.18;94.20
25238;BME280;13185;50.872;5.306;2023-02-27T08:21:26;102596.97;;;-1.13;94.01
25238;BME280;13185;50.872;5.306;2023-02-27T08:23:52;102602.28;;;-1.09;93.70
25238;BME280;13185;50.872;5.306;2023-02-27T08:26:18;102606.69;;;-1.05;93.54
25238;BME280;13185;50.872;5.306;2023-02-27T08:28:44;102611.16;;;-1.01;93.42
25238;BME280;13185;50.872;5.306;2023-02-27T08:31:10;102611.16;;;-0.99;92.71
25238;BME280;13185;50.872;5.306;2023-02-27T08:33:35;102613.00;;;-0.92;92.90
25238;BME280;13185;50.872;5.306;2023-02-27T08:36:01;102613.91;;;-0.89;92.42
25238;BME280;13185;50.872;5.306;2023-02-27T08:38:26;102612.22;;;-0.82;92.66
25238;BME280;13185;50.872;5.306;2023-02-27T08:40:52;102614.03;;;-0.76;92.31
25238;BME280;13185;50.872;5.306;2023-02-27T08:43:19;102611.50;;;-0.67;92.31
25238;BME280;13185;50.872;5.306;2023-02-27T08:45:45;102612.38;;;-0.64;91.94
25238;BME280;13185;50.872;5.306;2023-02-27T08:48:11;102616.00;;;-0.52;92.38
25238;BME280;13185;50.872;5.306;2023-02-27T08:50:40;102609.03;;;-0.46;91.48
25238;BME280;13185;50.872;5.306;2023-02-27T08:53:06;102607.31;;;-0.42;90.64
25238;BME280;13185;50.872;5.306;2023-02-27T08:55:32;102615.25;;;-0.39;89.65
25238;BME280;13185;50.872;5.306;2023-02-27T08:57:57;102618.78;;;-0.36;89.64
25238;BME280;13185;50.872;5.306;2023-02-27T09:00:23;102619.75;;;-0.27;89.84
25238;BME280;13185;50.872;5.306;2023-02-27T09:02:49;102618.94;;;-0.20;89.08
25238;BME280;13185;50.872;5.306;2023-02-27T09:05:15;102619.84;;;-0.12;89.58
25238;BME280;13185;50.872;5.306;2023-02-27T09:07:41;102612.00;;;-0.06;89.53
25238;BME280;13185;50.872;5.306;2023-02-27T09:10:07;102615.59;;;0.05;89.83
25238;BME280;13185;50.872;5.306;2023-02-27T09:12:33;102622.63;;;0.09;88.31
25238;BME280;13185;50.872;5.306;2023-02-27T09:14:58;102614.75;;;0.11;87.13
25238;BME280;13185;50.872;5.306;2023-02-27T09:17:24;102619.16;;;0.16;87.50
25238;BME280;13185;50.872;5.306;2023-02-27T09:19:49;102624.50;;;0.27;87.72
25238;BME280;13185;50.872;5.306;2023-02-27T09:22:16;102621.91;;;0.32;85.63
25238;BME280;13185;50.872;5.306;2023-02-27T09:24:42;102614.88;;;0.38;84.46
25238;BME280;13185;50.872;5.306;2023-02-27T09:27:07;102614.94;;;0.46;84.71
25238;BME280;13185;50.872;5.306;2023-02-27T09:29:33;102617.63;;;0.53;84.20
25238;BME280;13185;50.872;5.306;2023-02-27T09:31:58;102615.00;;;0.60;82.94
25238;BME280;13185;50.872;5.306;2023-02-27T09:34:24;102620.31;;;0.69;82.69
25238;BME280;13185;50.872;5.306;2023-02-27T09:36:50;102623.00;;;0.73;81.46
25238;BME280;13185;50.872;5.306;2023-02-27T09:39:16;102625.63;;;0.78;80.80
25238;BME280;13185;50.872;5.306;2023-02-27T09:42:17;102618.63;;;0.84;80.63
25238;BME280;13185;50.872;5.306;2023-02-27T09:44:48;102616.00;;;0.94;80.46
25238;BME280;13185;50.872;5.306;2023-02-27T09:47:22;102623.94;;;0.98;80.34
25238;BME280;13185;50.872;5.306;2023-02-27T09:49:57;102629.25;;;1.06;80.33
25238;BME280;13185;50.872;5.306;2023-02-27T09:52:23;102622.22;;;1.11;79.14
25238;BME280;13185;50.872;5.306;2023-02-27T09:54:49;102624.88;;;1.15;78.70
25238;BME280;13185;50.872;5.306;2023-02-27T09:57:18;102622.22;;;1.20;77.40
25238;BME280;13185;50.872;5.306;2023-02-27T09:59:51;102624.03;;;1.26;77.65
25238;BME280;13185;50.872;5.306;2023-02-27T10:05:25;102614.34;;;1.40;76.55
25238;BME280;13185;50.872;5.306;2023-02-27T10:11:04;102628.44;;;1.56;76.48
25238;BME280;13185;50.872;5.306;2023-02-27T10:16:19;102631.09;;;1.69;76.58
25238;BME280;13185;50.872;5.306;2023-02-27T10:18:51;102631.97;;;1.76;76.86
25238;BME280;13185;50.872;5.306;2023-02-27T10:21:23;102618.72;;;2.14;75.29
25238;BME280;13185;50.872;5.306;2023-02-27T10:23:56;102620.44;;;2.35;72.93
25238;BME280;13185;50.872;5.306;2023-02-27T10:26:34;102619.50;;;2.45;70.96
25238;BME280;13185;50.872;5.306;2023-02-27T10:29:31;102620.31;;;2.67;70.38
25238;BME280;13185;50.872;5.306;2023-02-27T10:34:29;102624.56;;;3.03;68.31
25238;BME280;13185;50.872;5.306;2023-02-27T10:36:57;102614.84;;;3.05;67.78
25238;BME280;13185;50.872;5.306;2023-02-27T10:39:24;102611.31;;;3.05;66.96
25238;BME280;13185;50.872;5.306;2023-02-27T10:41:50;102604.19;;;3.13;65.85
25238;BME280;13185;50.872;5.306;2023-02-27T10:44:16;102610.31;;;3.19;65.09
25238;BME280;13185;50.872;5.306;2023-02-27T10:46:45;102617.31;;;3.30;65.68
25238;BME280;13185;50.872;5.306;2023-02-27T10:49:18;102605.78;;;3.38;65.55
25238;BME280;13185;50.872;5.306;2023-02-27T10:51:45;102611.94;;;3.42;64.53
25238;BME280;13185;50.872;5.306;2023-02-27T10:54:15;102612.78;;;3.48;64.45
25238;BME280;13185;50.872;5.306;2023-02-27T10:56:43;102613.66;;;3.47;64.00
25238;BME280;13185;50.872;5.306;2023-02-27T10:59:27;102610.94;;;3.57;63.96
25238;BME280;13185;50.872;5.306;2023-02-27T11:02:05;102614.44;;;3.60;62.94
25238;BME280;13185;50.872;5.306;2023-02-27T11:04:50;102603.75;;;3.69;61.36
25238;BME280;13185;50.872;5.306;2023-02-27T11:07:27;102609.94;;;3.70;60.43
25238;BME280;13185;50.872;5.306;2023-02-27T11:10:18;102603.75;;;3.71;61.30
25238;BME280;13185;50.872;5.306;2023-02-27T11:13:01;102600.13;;;3.80;59.77
25238;BME280;13185;50.872;5.306;2023-02-27T11:15:30;102595.66;;;3.86;60.27
25238;BME280;13185;50.872;5.306;2023-02-27T11:18:19;102597.41;;;3.87;59.99
25238;BME280;13185;50.872;5.306;2023-02-27T11:20:46;102600.91;;;3.91;59.44
25238;BME280;13185;50.872;5.306;2023-02-27T11:23:24;102588.56;;;3.88;59.22
25238;BME280;13185;50.872;5.306;2023-02-27T11:25:50;102597.41;;;3.89;60.42
25238;BME280;13185;50.872;5.306;2023-02-27T11:28:24;102586.72;;;3.96;60.40
25238;BME280;13185;50.872;5.306;2023-02-27T11:31:15;102571.56;;;4.04;60.63
25238;BME280;13185;50.872;5.306;2023-02-27T11:33:50;102577.72;;;4.10;60.22
25238;BME280;13185;50.872;5.306;2023-02-27T11:36:18;102578.59;;;4.10;59.39
25238;BME280;13185;50.872;5.306;2023-02-27T11:38:54;102574.28;;;4.00;59.32
25238;BME280;13185;50.872;5.306;2023-02-27T11:41:29;102571.53;;;4.09;61.70
25238;BME280;13185;50.872;5.306;2023-02-27T11:43:58;102571.41;;;4.21;61.28
25238;BME280;13185;50.872;5.306;2023-02-27T11:46:25;102568.75;;;4.21;59.21
25238;BME280;13185;50.872;5.306;2023-02-27T11:49:26;102573.19;;;4.16;60.11
25238;BME280;13185;50.872;5.306;2023-02-27T11:52:26;102564.22;;;4.29;59.22
25238;BME280;13185;50.872;5.306;2023-02-27T11:54:57;102562.53;;;4.22;59.65
25238;BME280;13185;50.872;5.306;2023-02-27T11:57:37;102565.19;;;4.22;61.01
25238;BME280;13185;50.872;5.306;2023-02-27T12:07:59;102550.81;;;4.40;60.32
25238;BME280;13185;50.872;5.306;2023-02-27T12:13:26;102559.53;;;4.51;60.55
25238;BME280;13185;50.872;5.306;2023-02-27T12:16:00;102549.63;;;4.62;60.40
25238;BME280;13185;50.872;5.306;2023-02-27T12:18:39;102562.81;;;4.72;59.32
25238;BME280;13185;50.872;5.306;2023-02-27T12:21:15;102549.47;;;4.75;58.39
25238;BME280;13185;50.872;5.306;2023-02-27T12:23:48;102545.84;;;4.82;57.84
25238;BME280;13185;50.872;5.306;2023-02-27T12:26:19;102545.72;;;4.88;57.00
25238;BME280;13185;50.872;5.306;2023-02-27T12:31:42;102542.88;;;5.03;56.15
25238;BME280;13185;50.872;5.306;2023-02-27T12:37:19;102537.44;;;5.11;55.11
25238;BME280;13185;50.872;5.306;2023-02-27T12:39:47;102531.13;;;5.16;54.96
25238;BME280;13185;50.872;5.306;2023-02-27T12:53:31;102506.41;;;5.61;55.09
25238;BME280;13185;50.872;5.306;2023-02-27T12:56:12;102511.56;;;5.71;54.95
25238;BME280;13185;50.872;5.306;2023-02-27T12:58:54;102506.94;;;5.81;54.84
25238;BME280;13185;50.872;5.306;2023-02-27T13:01:30;102512.94;;;5.94;54.96
25238;BME280;13185;50.872;5.306;2023-02-27T13:04:07;102510.13;;;6.01;54.40
25238;BME280;13185;50.872;5.306;2023-02-27T13:09:23;102514.63;;;5.99;52.56
25238;BME280;13185;50.872;5.306;2023-02-27T13:19:51;102508.75;;;5.79;52.82
25238;BME280;13185;50.872;5.306;2023-02-27T13:24:50;102500.53;;;5.94;53.32
25238;BME280;13185;50.872;5.306;2023-02-27T13:27:23;102499.44;;;6.04;53.13
25238;BME280;13185;50.872;5.306;2023-02-27T13:35:41;102489.97;;;6.31;52.13
25238;BME280;13185;50.872;5.306;2023-02-27T13:40:53;102485.91;;;6.57;52.49
25238;BME280;13185;50.872;5.306;2023-02-27T13:43:35;102480.25;;;6.71;52.41
25238;BME280;13185;50.872;5.306;2023-02-27T13:57:04;102488.31;;;6.27;51.98
25238;BME280;13185;50.872;5.306;2023-02-27T13:59:35;102483.53;;;6.42;51.85
25238;BME280;13185;50.872;5.306;2023-02-27T14:04:42;102481.41;;;6.59;50.12
25238;BME280;13185;50.872;5.306;2023-02-27T14:07:14;102483.22;;;6.55;50.08
25238;BME280;13185;50.872;5.306;2023-02-27T14:09:46;102483.47;;;6.46;50.51
25238;BME280;13185;50.872;5.306;2023-02-27T14:12:37;102477.31;;;6.43;50.70
25238;BME280;13185;50.872;5.306;2023-02-27T14:17:55;102475.91;;;6.65;51.26
25238;BME280;13185;50.872;5.306;2023-02-27T14:25:50;102476.06;;;6.59;50.74
25238;BME280;13185;50.872;5.306;2023-02-27T14:28:33;102479.88;;;6.47;50.21
25238;BME280;13185;50.872;5.306;2023-02-27T14:31:01;102480.84;;;6.43;50.93
25238;BME280;13185;50.872;5.306;2023-02-27T14:36:03;102490.31;;;6.56;50.33
25238;BME280;13185;50.872;5.306;2023-02-27T14:38:32;102483.34;;;6.51;49.60
25238;BME280;13185;50.872;5.306;2023-02-27T14:41:16;102475.75;;;6.32;50.21
25238;BME280;13185;50.872;5.306;2023-02-27T14:43:50;102480.69;;;6.51;50.51
25238;BME280;13185;50.872;5.306;2023-02-27T14:46:38;102484.78;;;6.65;50.36
25238;BME280;13185;50.872;5.306;2023-02-27T14:49:06;102471.13;;;6.81;50.25
25238;BME280;13185;50.872;5.306;2023-02-27T14:51:41;102472.50;;;6.97;50.12
25238;BME280;13185;50.872;5.306;2023-02-27T14:56:33;102482.41;;;7.28;49.47
25238;BME280;13185;50.872;5.306;2023-02-27T14:58:58;102481.06;;;7.11;48.66
25238;BME280;13185;50.872;5.306;2023-02-27T15:01:26;102478.00;;;6.91;49.09
25238;BME280;13185;50.872;5.306;2023-02-27T15:03:59;102483.81;;;6.70;49.34
25238;BME280;13185;50.872;5.306;2023-02-27T15:06:34;102486.72;;;6.59;49.22
25238;BME280;13185;50.872;5.306;2023-02-27T15:09:01;102482.59;;;6.44;49.74
25238;BME280;13185;50.872;5.306;2023-02-27T15:11:26;102483.47;;;6.46;50.09
25238;BME280;13185;50.872;5.306;2023-02-27T15:14:00;102469.91;;;6.55;50.06
25238;BME280;13185;50.872;5.306;2023-02-27T15:16:36;102480.31;;;6.68;50.25
25238;BME280;13185;50.872;5.306;2023-02-27T15:19:13;102480.09;;;6.77;49.29
25238;BME280;13185;50.872;5.306;2023-02-27T15:21:43;102477.41;;;6.77;49.25
25238;BME280;13185;50.872;5.306;2023-02-27T15:24:20;102470.19;;;6.82;49.74
25238;BME280;13185;50.872;5.306;2023-02-27T15:26:51;102457.25;;;7.02;49.93
25238;BME280;13185;50.872;5.306;2023-02-27T15:29:21;102455.91;;;7.21;50.29
25238;BME280;13185;50.872;5.306;2023-02-27T15:31:48;102456.34;;;7.37;49.26
25238;BME280;13185;50.872;5.306;2023-02-27T15:34:14;102453.81;;;7.33;49.00
25238;BME280;13185;50.872;5.306;2023-02-27T15:36:50;102474.06;;;7.06;48.92
25238;BME280;13185;50.872;5.306;2023-02-27T15:39:18;102465.69;;;6.84;49.68
25238;BME280;13185;50.872;5.306;2023-02-27T15:41:56;102467.75;;;6.73;49.94
25238;BME280;13185;50.872;5.306;2023-02-27T15:44:30;102468.44;;;6.81;50.65